sensor_id;sensor_type;location;lat;lon;timestamp;temperature;humidity
18291;DHT22;9271;48.590;8.866;2022-12-18T00:01:58;-9.90;94.10
18291;DHT22;9271;48.590;8.866;2022-12-18T00:04:26;-9.70;93.90
18291;DHT22;9271;48.590;8.866;2022-12-18T00:06:53;-9.80;93.90
18291;DHT22;9271;48.590;8.866;2022-12-18T00:09:20;-9.90;93.90
18291;DHT22;9271;48.590;8.866;2022-12-18T00:11:47;-10.00;93.90
18291;DHT22;9271;48.590;8.866;2022-12-18T00:14:14;-10.20;93.90
18291;DHT22;9271;48.590;8.866;2022-12-18T00:16:43;-10.30;94.90
18291;DHT22;9271;48.590;8.866;2022-12-18T00:19:12;-10.20;94.30
18291;DHT22;9271;48.590;8.866;2022-12-18T00:21:40;-10.30;94.40
18291;DHT22;9271;48.590;8.866;2022-12-18T00:24:08;-10.20;94.60
18291;DHT22;9271;48.590;8.866;2022-12-18T00:26:36;-10.20;94.20
18291;DHT22;9271;48.590;8.866;2022-12-18T00:29:06;-10.10;94.10
18291;DHT22;9271;48.590;8.866;2022-12-18T00:31:34;-10.00;94.70
18291;DHT22;9271;48.590;8.866;2022-12-18T00:34:01;-9.90;94.10
18291;DHT22;9271;48.590;8.866;2022-12-18T00:36:31;-9.80;93.80
18291;DHT22;9271;48.590;8.866;2022-12-18T00:39:02;-9.90;93.90
18291;DHT22;9271;48.590;8.866;2022-12-18T00:41:29;-9.80;94.10
18291;DHT22;9271;48.590;8.866;2022-12-18T00:44:15;-9.60;93.60
18291;DHT22;9271;48.590;8.866;2022-12-18T00:46:43;-9.80;93.50
18291;DHT22;9271;48.590;8.866;2022-12-18T00:49:12;-9.80;93.70
18291;DHT22;9271;48.590;8.866;2022-12-18T00:51:41;-9.90;93.40
18291;DHT22;9271;48.590;8.866;2022-12-18T00:54:08;-10.00;93.80
18291;DHT22;9271;48.590;8.866;2022-12-18T00:56:38;-10.10;94.10
18291;DHT22;9271;48.590;8.866;2022-12-18T00:59:05;-9.90;93.80
18291;DHT22;9271;48.590;8.866;2022-12-18T01:01:32;-10.20;93.50
18291;DHT22;9271;48.590;8.866;2022-12-18T01:04:00;-10.30;93.90
18291;DHT22;9271;48.590;8.866;2022-12-18T01:06:27;-10.50;94.30
18291;DHT22;9271;48.590;8.866;2022-12-18T01:08:56;-10.60;94.40
18291;DHT22;9271;48.590;8.866;2022-12-18T01:11:22;-10.30;94.60
18291;DHT22;9271;48.590;8.866;2022-12-18T01:13:49;-10.20;94.30
18291;DHT22;9271;48.590;8.866;2022-12-18T01:16:18;-10.10;93.90
18291;DHT22;9271;48.590;8.866;2022-12-18T01:18:45;-10.00;93.70
18291;DHT22;9271;48.590;8.866;2022-12-18T01:21:14;-9.90;93.20
18291;DHT22;9271;48.590;8.866;2022-12-18T01:23:44;-10.20;93.50
18291;DHT22;9271;48.590;8.866;2022-12-18T01:26:16;-10.10;93.60
18291;DHT22;9271;48.590;8.866;2022-12-18T01:28:43;-10.10;93.70
18291;DHT22;9271;48.590;8.866;2022-12-18T01:31:16;-10.00;93.20
18291;DHT22;9271;48.590;8.866;2022-12-18T01:33:44;-10.00;93.50
18291;DHT22;9271;48.590;8.866;2022-12-18T01:36:19;-10.00;93.00
18291;DHT22;9271;48.590;8.866;2022-12-18T01:38:46;-9.90;93.50
18291;DHT22;9271;48.590;8.866;2022-12-18T01:41:16;-9.90;93.20
18291;DHT22;9271;48.590;8.866;2022-12-18T01:43:45;-9.90;93.40
18291;DHT22;9271;48.590;8.866;2022-12-18T01:46:13;-9.70;93.40
18291;DHT22;9271;48.590;8.866;2022-12-18T01:48:40;-9.40;93.00
18291;DHT22;9271;48.590;8.866;2022-12-18T01:51:09;-9.20;92.90
18291;DHT22;9271;48.590;8.866;2022-12-18T01:53:37;-9.10;92.70
18291;DHT22;9271;48.590;8.866;2022-12-18T01:56:06;-8.90;93.00
18291;DHT22;9271;48.590;8.866;2022-12-18T01:58:41;-8.80;92.90
18291;DHT22;9271;48.590;8.866;2022-12-18T02:01:10;-8.80;93.00
18291;DHT22;9271;48.590;8.866;2022-12-18T02:03:37;-8.80;93.40
18291;DHT22;9271;48.590;8.866;2022-12-18T02:06:09;-8.70;93.00
18291;DHT22;9271;48.590;8.866;2022-12-18T02:08:41;-8.80;93.30
18291;DHT22;9271;48.590;8.866;2022-12-18T02:11:14;-8.80;93.80
18291;DHT22;9271;48.590;8.866;2022-12-18T02:13:52;-8.80;93.90
18291;DHT22;9271;48.590;8.866;2022-12-18T02:16:24;-9.00;93.30
18291;DHT22;9271;48.590;8.866;2022-12-18T02:18:57;-9.40;94.60
18291;DHT22;9271;48.590;8.866;2022-12-18T02:21:31;-9.80;95.60
18291;DHT22;9271;48.590;8.866;2022-12-18T02:24:11;-9.60;96.10
18291;DHT22;9271;48.590;8.866;2022-12-18T02:26:47;-9.20;95.40
18291;DHT22;9271;48.590;8.866;2022-12-18T02:29:20;-9.00;95.10
18291;DHT22;9271;48.590;8.866;2022-12-18T02:31:51;-8.70;94.90
18291;DHT22;9271;48.590;8.866;2022-12-18T02:34:20;-8.50;94.20
18291;DHT22;9271;48.590;8.866;2022-12-18T02:36:48;-8.70;94.20
18291;DHT22;9271;48.590;8.866;2022-12-18T02:39:17;-8.40;94.10
18291;DHT22;9271;48.590;8.866;2022-12-18T02:41:47;-8.30;94.00
18291;DHT22;9271;48.590;8.866;2022-12-18T02:44:14;-8.40;93.70
18291;DHT22;9271;48.590;8.866;2022-12-18T02:46:42;-8.40;94.00
18291;DHT22;9271;48.590;8.866;2022-12-18T02:49:23;-8.40;93.90
18291;DHT22;9271;48.590;8.866;2022-12-18T02:51:55;-8.20;93.20
18291;DHT22;9271;48.590;8.866;2022-12-18T02:54:38;-8.30;92.60
18291;DHT22;9271;48.590;8.866;2022-12-18T02:57:15;-8.60;93.10
18291;DHT22;9271;48.590;8.866;2022-12-18T02:59:49;-8.80;93.90
18291;DHT22;9271;48.590;8.866;2022-12-18T03:02:26;-8.70;94.40
18291;DHT22;9271;48.590;8.866;2022-12-18T03:04:59;-8.60;94.00
18291;DHT22;9271;48.590;8.866;2022-12-18T03:07:35;-8.60;93.70
18291;DHT22;9271;48.590;8.866;2022-12-18T03:10:06;-8.40;93.90
18291;DHT22;9271;48.590;8.866;2022-12-18T03:12:38;-8.20;93.30
18291;DHT22;9271;48.590;8.866;2022-12-18T03:15:10;-8.20;92.90
18291;DHT22;9271;48.590;8.866;2022-12-18T03:17:42;-8.10;93.00
18291;DHT22;9271;48.590;8.866;2022-12-18T03:20:14;-8.30;93.00
18291;DHT22;9271;48.590;8.866;2022-12-18T03:22:43;-8.20;93.80
18291;DHT22;9271;48.590;8.866;2022-12-18T03:25:13;-8.10;94.20
18291;DHT22;9271;48.590;8.866;2022-12-18T03:27:46;-8.00;94.20
18291;DHT22;9271;48.590;8.866;2022-12-18T03:30:15;-8.20;93.30
18291;DHT22;9271;48.590;8.866;2022-12-18T03:32:46;-8.40;94.40
18291;DHT22;9271;48.590;8.866;2022-12-18T03:35:16;-8.30;95.20
18291;DHT22;9271;48.590;8.866;2022-12-18T03:37:45;-8.30;95.40
18291;DHT22;9271;48.590;8.866;2022-12-18T03:40:11;-8.10;95.30
18291;DHT22;9271;48.590;8.866;2022-12-18T03:42:46;-8.00;95.20
18291;DHT22;9271;48.590;8.866;2022-12-18T03:45:20;-7.90;95.10
18291;DHT22;9271;48.590;8.866;2022-12-18T03:47:56;-7.50;95.00
18291;DHT22;9271;48.590;8.866;2022-12-18T03:50:30;-7.30;94.70
18291;DHT22;9271;48.590;8.866;2022-12-18T03:53:08;-7.10;94.30
18291;DHT22;9271;48.590;8.866;2022-12-18T03:55:37;-7.10;94.20
18291;DHT22;9271;48.590;8.866;2022-12-18T03:58:07;-7.20;94.20
18291;DHT22;9271;48.590;8.866;2022-12-18T04:00:36;-7.10;94.10
18291;DHT22;9271;48.590;8.866;2022-12-18T04:03:04;-7.40;93.60
18291;DHT22;9271;48.590;8.866;2022-12-18T04:05:33;-7.60;94.80
18291;DHT22;9271;48.590;8.866;2022-12-18T04:08:00;-7.70;95.70
18291;DHT22;9271;48.590;8.866;2022-12-18T04:10:27;-7.60;95.90
18291;DHT22;9271;48.590;8.866;2022-12-18T04:12:56;-7.40;95.80
18291;DHT22;9271;48.590;8.866;2022-12-18T04:15:24;-7.20;95.50
18291;DHT22;9271;48.590;8.866;2022-12-18T04:17:51;-7.10;95.60
18291;DHT22;9271;48.590;8.866;2022-12-18T04:20:18;-6.90;95.20
18291;DHT22;9271;48.590;8.866;2022-12-18T04:22:44;-6.80;94.90
18291;DHT22;9271;48.590;8.866;2022-12-18T04:25:11;-6.80;94.90
18291;DHT22;9271;48.590;8.866;2022-12-18T04:27:38;-6.70;94.90
18291;DHT22;9271;48.590;8.866;2022-12-18T04:30:06;-6.70;94.80
18291;DHT22;9271;48.590;8.866;2022-12-18T04:32:34;-6.50;94.90
18291;DHT22;9271;48.590;8.866;2022-12-18T04:35:01;-6.50;94.70
18291;DHT22;9271;48.590;8.866;2022-12-18T04:37:29;-6.70;95.10
18291;DHT22;9271;48.590;8.866;2022-12-18T04:39:56;-6.70;95.30
18291;DHT22;9271;48.590;8.866;2022-12-18T04:42:22;-6.70;95.40
18291;DHT22;9271;48.590;8.866;2022-12-18T04:44:49;-6.70;94.50
18291;DHT22;9271;48.590;8.866;2022-12-18T04:47:16;-6.90;94.30
18291;DHT22;9271;48.590;8.866;2022-12-18T04:49:44;-6.90;94.50
18291;DHT22;9271;48.590;8.866;2022-12-18T04:52:11;-6.90;94.60
18291;DHT22;9271;48.590;8.866;2022-12-18T04:54:37;-6.90;94.20
18291;DHT22;9271;48.590;8.866;2022-12-18T04:57:04;-7.10;94.50
18291;DHT22;9271;48.590;8.866;2022-12-18T04:59:31;-7.30;94.70
18291;DHT22;9271;48.590;8.866;2022-12-18T05:01:57;-7.50;95.00
18291;DHT22;9271;48.590;8.866;2022-12-18T05:04:24;-7.70;95.30
18291;DHT22;9271;48.590;8.866;2022-12-18T05:06:52;-7.90;96.40
18291;DHT22;9271;48.590;8.866;2022-12-18T05:09:19;-7.50;95.80
18291;DHT22;9271;48.590;8.866;2022-12-18T05:11:45;-7.80;95.40
18291;DHT22;9271;48.590;8.866;2022-12-18T05:14:13;-8.00;96.40
18291;DHT22;9271;48.590;8.866;2022-12-18T05:16:39;-8.30;96.60
18291;DHT22;9271;48.590;8.866;2022-12-18T05:19:06;-8.00;97.10
18291;DHT22;9271;48.590;8.866;2022-12-18T05:21:33;-8.00;96.80
18291;DHT22;9271;48.590;8.866;2022-12-18T05:24:01;-8.10;97.00
18291;DHT22;9271;48.590;8.866;2022-12-18T05:26:28;-7.70;97.30
18291;DHT22;9271;48.590;8.866;2022-12-18T05:28:55;-7.40;96.10
18291;DHT22;9271;48.590;8.866;2022-12-18T05:31:22;-7.30;96.30
18291;DHT22;9271;48.590;8.866;2022-12-18T05:33:49;-7.20;95.90
18291;DHT22;9271;48.590;8.866;2022-12-18T05:36:16;-7.30;95.90
18291;DHT22;9271;48.590;8.866;2022-12-18T05:38:43;-7.20;96.30
18291;DHT22;9271;48.590;8.866;2022-12-18T05:41:11;-7.10;96.20
18291;DHT22;9271;48.590;8.866;2022-12-18T05:43:39;-7.00;96.00
18291;DHT22;9271;48.590;8.866;2022-12-18T05:46:06;-6.80;95.80
18291;DHT22;9271;48.590;8.866;2022-12-18T05:48:33;-6.70;95.70
18291;DHT22;9271;48.590;8.866;2022-12-18T05:51:05;-6.70;95.60
18291;DHT22;9271;48.590;8.866;2022-12-18T05:53:32;-6.70;95.60
18291;DHT22;9271;48.590;8.866;2022-12-18T05:56:00;-7.00;96.10
18291;DHT22;9271;48.590;8.866;2022-12-18T05:58:29;-7.00;95.80
18291;DHT22;9271;48.590;8.866;2022-12-18T06:00:56;-7.40;96.50
18291;DHT22;9271;48.590;8.866;2022-12-18T06:03:24;-7.50;97.30
18291;DHT22;9271;48.590;8.866;2022-12-18T06:05:50;-7.50;96.80
18291;DHT22;9271;48.590;8.866;2022-12-18T06:08:17;-7.40;97.30
18291;DHT22;9271;48.590;8.866;2022-12-18T06:10:50;-7.10;97.10
18291;DHT22;9271;48.590;8.866;2022-12-18T06:13:18;-7.40;96.30
18291;DHT22;9271;48.590;8.866;2022-12-18T06:15:46;-7.30;97.20
18291;DHT22;9271;48.590;8.866;2022-12-18T06:18:12;-7.80;96.80
18291;DHT22;9271;48.590;8.866;2022-12-18T06:20:39;-7.90;97.60
18291;DHT22;9271;48.590;8.866;2022-12-18T06:23:07;-7.60;97.50
18291;DHT22;9271;48.590;8.866;2022-12-18T06:25:36;-7.40;97.50
18291;DHT22;9271;48.590;8.866;2022-12-18T06:28:03;-7.10;96.50
18291;DHT22;9271;48.590;8.866;2022-12-18T06:30:29;-7.00;95.90
18291;DHT22;9271;48.590;8.866;2022-12-18T06:32:58;-7.00;95.70
18291;DHT22;9271;48.590;8.866;2022-12-18T06:35:24;-6.90;95.60
18291;DHT22;9271;48.590;8.866;2022-12-18T06:37:51;-7.00;95.20
18291;DHT22;9271;48.590;8.866;2022-12-18T06:40:18;-7.60;95.80
18291;DHT22;9271;48.590;8.866;2022-12-18T06:42:44;-8.10;96.30
18291;DHT22;9271;48.590;8.866;2022-12-18T06:45:11;-8.00;97.50
18291;DHT22;9271;48.590;8.866;2022-12-18T06:47:43;-7.60;97.00
18291;DHT22;9271;48.590;8.866;2022-12-18T06:50:12;-7.50;96.80
18291;DHT22;9271;48.590;8.866;2022-12-18T06:52:39;-7.40;96.40
18291;DHT22;9271;48.590;8.866;2022-12-18T06:55:07;-7.20;96.00
18291;DHT22;9271;48.590;8.866;2022-12-18T06:57:34;-7.40;96.00
18291;DHT22;9271;48.590;8.866;2022-12-18T07:00:01;-7.40;95.90
18291;DHT22;9271;48.590;8.866;2022-12-18T07:02:28;-7.20;96.00
18291;DHT22;9271;48.590;8.866;2022-12-18T07:04:54;-7.10;95.60
18291;DHT22;9271;48.590;8.866;2022-12-18T07:07:23;-7.10;95.50
18291;DHT22;9271;48.590;8.866;2022-12-18T07:09:49;-7.30;94.90
18291;DHT22;9271;48.590;8.866;2022-12-18T07:12:17;-7.30;95.10
18291;DHT22;9271;48.590;8.866;2022-12-18T07:14:43;-7.40;95.20
18291;DHT22;9271;48.590;8.866;2022-12-18T07:17:10;-7.40;95.30
18291;DHT22;9271;48.590;8.866;2022-12-18T07:19:37;-7.50;95.70
18291;DHT22;9271;48.590;8.866;2022-12-18T07:22:04;-7.40;95.00
18291;DHT22;9271;48.590;8.866;2022-12-18T07:24:32;-7.50;95.10
18291;DHT22;9271;48.590;8.866;2022-12-18T07:26:59;-7.50;94.70
18291;DHT22;9271;48.590;8.866;2022-12-18T07:29:25;-7.50;95.30
18291;DHT22;9271;48.590;8.866;2022-12-18T07:31:52;-7.70;95.00
18291;DHT22;9271;48.590;8.866;2022-12-18T07:34:19;-7.70;95.70
18291;DHT22;9271;48.590;8.866;2022-12-18T07:36:46;-7.90;95.10
18291;DHT22;9271;48.590;8.866;2022-12-18T07:39:12;-8.10;97.00
18291;DHT22;9271;48.590;8.866;2022-12-18T07:41:40;-8.00;96.40
18291;DHT22;9271;48.590;8.866;2022-12-18T07:44:12;-7.80;96.40
18291;DHT22;9271;48.590;8.866;2022-12-18T07:46:39;-7.70;95.80
18291;DHT22;9271;48.590;8.866;2022-12-18T07:49:05;-8.10;95.50
18291;DHT22;9271;48.590;8.866;2022-12-18T07:51:32;-8.00;95.90
18291;DHT22;9271;48.590;8.866;2022-12-18T07:53:59;-7.90;96.30
18291;DHT22;9271;48.590;8.866;2022-12-18T07:56:25;-7.80;95.70
18291;DHT22;9271;48.590;8.866;2022-12-18T07:58:53;-7.90;95.40
18291;DHT22;9271;48.590;8.866;2022-12-18T08:01:20;-7.90;96.10
18291;DHT22;9271;48.590;8.866;2022-12-18T08:03:47;-7.60;95.90
18291;DHT22;9271;48.590;8.866;2022-12-18T08:06:14;-7.40;95.50
18291;DHT22;9271;48.590;8.866;2022-12-18T08:08:40;-7.30;94.90
18291;DHT22;9271;48.590;8.866;2022-12-18T08:11:07;-7.30;95.00
18291;DHT22;9271;48.590;8.866;2022-12-18T08:13:34;-7.30;94.30
18291;DHT22;9271;48.590;8.866;2022-12-18T08:16:04;-7.30;94.40
18291;DHT22;9271;48.590;8.866;2022-12-18T08:18:32;-7.30;94.90
18291;DHT22;9271;48.590;8.866;2022-12-18T08:21:08;-7.20;94.60
18291;DHT22;9271;48.590;8.866;2022-12-18T08:23:35;-7.30;95.20
18291;DHT22;9271;48.590;8.866;2022-12-18T08:26:02;-6.90;94.80
18291;DHT22;9271;48.590;8.866;2022-12-18T08:28:28;-6.90;94.80
18291;DHT22;9271;48.590;8.866;2022-12-18T08:30:55;-6.60;94.70
18291;DHT22;9271;48.590;8.866;2022-12-18T08:33:25;-6.40;94.20
18291;DHT22;9271;48.590;8.866;2022-12-18T08:35:52;-6.30;94.20
18291;DHT22;9271;48.590;8.866;2022-12-18T08:38:18;-6.20;93.50
18291;DHT22;9271;48.590;8.866;2022-12-18T08:40:45;-6.20;93.10
18291;DHT22;9271;48.590;8.866;2022-12-18T08:43:12;-6.30;92.80
18291;DHT22;9271;48.590;8.866;2022-12-18T08:45:57;-6.00;93.20
18291;DHT22;9271;48.590;8.866;2022-12-18T08:48:25;-5.70;93.00
18291;DHT22;9271;48.590;8.866;2022-12-18T08:50:55;-5.70;92.50
18291;DHT22;9271;48.590;8.866;2022-12-18T08:53:22;-6.10;92.40
18291;DHT22;9271;48.590;8.866;2022-12-18T08:55:49;-6.10;93.10
18291;DHT22;9271;48.590;8.866;2022-12-18T08:58:16;-5.80;92.40
18291;DHT22;9271;48.590;8.866;2022-12-18T09:00:43;-5.90;92.10
18291;DHT22;9271;48.590;8.866;2022-12-18T09:03:11;-5.80;91.90
18291;DHT22;9271;48.590;8.866;2022-12-18T09:05:40;-5.60;91.90
18291;DHT22;9271;48.590;8.866;2022-12-18T09:08:07;-5.40;92.20
18291;DHT22;9271;48.590;8.866;2022-12-18T09:10:34;-5.00;92.60
18291;DHT22;9271;48.590;8.866;2022-12-18T09:13:00;-4.70;91.70
18291;DHT22;9271;48.590;8.866;2022-12-18T09:15:27;-4.70;91.60
18291;DHT22;9271;48.590;8.866;2022-12-18T09:17:54;-4.80;91.00
18291;DHT22;9271;48.590;8.866;2022-12-18T09:20:20;-4.60;92.00
18291;DHT22;9271;48.590;8.866;2022-12-18T09:22:49;-4.30;91.70
18291;DHT22;9271;48.590;8.866;2022-12-18T09:25:15;-4.30;91.50
18291;DHT22;9271;48.590;8.866;2022-12-18T09:27:42;-4.00;91.10
18291;DHT22;9271;48.590;8.866;2022-12-18T09:30:10;-3.10;91.80
18291;DHT22;9271;48.590;8.866;2022-12-18T09:32:36;-2.10;92.30
18291;DHT22;9271;48.590;8.866;2022-12-18T09:35:04;-1.70;90.10
18291;DHT22;9271;48.590;8.866;2022-12-18T09:37:30;-1.50;86.20
18291;DHT22;9271;48.590;8.866;2022-12-18T09:39:59;-1.80;85.20
18291;DHT22;9271;48.590;8.866;2022-12-18T09:42:25;-2.20;84.40
18291;DHT22;9271;48.590;8.866;2022-12-18T09:44:53;-2.20;85.70
18291;DHT22;9271;48.590;8.866;2022-12-18T09:47:23;-2.40;84.40
18291;DHT22;9271;48.590;8.866;2022-12-18T09:49:54;-2.40;85.50
18291;DHT22;9271;48.590;8.866;2022-12-18T09:52:25;-2.50;86.20
18291;DHT22;9271;48.590;8.866;2022-12-18T09:54:56;-1.90;85.20
18291;DHT22;9271;48.590;8.866;2022-12-18T09:57:26;-1.20;84.00
18291;DHT22;9271;48.590;8.866;2022-12-18T09:59:56;-0.50;83.40
18291;DHT22;9271;48.590;8.866;2022-12-18T10:02:25;1.20;82.20
18291;DHT22;9271;48.590;8.866;2022-12-18T10:05:03;3.50;74.40
18291;DHT22;9271;48.590;8.866;2022-12-18T10:07:38;5.80;62.10
18291;DHT22;9271;48.590;8.866;2022-12-18T10:10:15;6.50;56.40
18291;DHT22;9271;48.590;8.866;2022-12-18T10:12:49;6.90;53.00
18291;DHT22;9271;48.590;8.866;2022-12-18T10:15:24;8.90;48.60
18291;DHT22;9271;48.590;8.866;2022-12-18T10:17:58;10.80;42.90
18291;DHT22;9271;48.590;8.866;2022-12-18T10:20:32;12.60;38.20
18291;DHT22;9271;48.590;8.866;2022-12-18T10:23:05;13.50;35.10
18291;DHT22;9271;48.590;8.866;2022-12-18T10:25:38;13.80;32.60
18291;DHT22;9271;48.590;8.866;2022-12-18T10:28:12;14.50;31.40
18291;DHT22;9271;48.590;8.866;2022-12-18T10:30:39;13.40;30.90
18291;DHT22;9271;48.590;8.866;2022-12-18T10:33:10;13.20;31.00
18291;DHT22;9271;48.590;8.866;2022-12-18T10:35:42;13.90;29.90
18291;DHT22;9271;48.590;8.866;2022-12-18T10:38:22;14.60;29.70
18291;DHT22;9271;48.590;8.866;2022-12-18T10:40:51;13.90;29.80
18291;DHT22;9271;48.590;8.866;2022-12-18T10:43:23;12.80;29.80
18291;DHT22;9271;48.590;8.866;2022-12-18T10:46:12;12.70;30.50
18291;DHT22;9271;48.590;8.866;2022-12-18T10:48:48;13.60;30.10
18291;DHT22;9271;48.590;8.866;2022-12-18T10:51:20;13.00;29.70
18291;DHT22;9271;48.590;8.866;2022-12-18T10:53:54;13.40;30.70
18291;DHT22;9271;48.590;8.866;2022-12-18T10:56:22;14.50;30.10
18291;DHT22;9271;48.590;8.866;2022-12-18T10:58:58;14.70;29.50
18291;DHT22;9271;48.590;8.866;2022-12-18T11:01:25;14.70;28.30
18291;DHT22;9271;48.590;8.866;2022-12-18T11:04:01;14.50;28.60
18291;DHT22;9271;48.590;8.866;2022-12-18T11:06:28;14.40;28.70
18291;DHT22;9271;48.590;8.866;2022-12-18T11:09:00;14.40;28.90
18291;DHT22;9271;48.590;8.866;2022-12-18T11:11:28;15.00;29.10
18291;DHT22;9271;48.590;8.866;2022-12-18T11:14:00;15.50;27.90
18291;DHT22;9271;48.590;8.866;2022-12-18T11:16:30;15.40;27.50
18291;DHT22;9271;48.590;8.866;2022-12-18T11:19:19;15.90;27.70
18291;DHT22;9271;48.590;8.866;2022-12-18T11:21:48;16.70;27.00
18291;DHT22;9271;48.590;8.866;2022-12-18T11:24:20;15.40;27.30
18291;DHT22;9271;48.590;8.866;2022-12-18T11:26:49;14.00;28.20
18291;DHT22;9271;48.590;8.866;2022-12-18T11:29:19;14.10;29.10
18291;DHT22;9271;48.590;8.866;2022-12-18T11:31:49;14.20;28.40
18291;DHT22;9271;48.590;8.866;2022-12-18T11:34:22;14.10;28.90
18291;DHT22;9271;48.590;8.866;2022-12-18T11:36:51;14.40;29.20
18291;DHT22;9271;48.590;8.866;2022-12-18T11:39:22;14.90;28.00
18291;DHT22;9271;48.590;8.866;2022-12-18T11:41:53;15.30;28.30
18291;DHT22;9271;48.590;8.866;2022-12-18T11:44:43;16.20;29.00
18291;DHT22;9271;48.590;8.866;2022-12-18T11:47:19;17.30;27.70
18291;DHT22;9271;48.590;8.866;2022-12-18T11:49:49;18.20;27.30
18291;DHT22;9271;48.590;8.866;2022-12-18T11:52:18;17.50;26.20
18291;DHT22;9271;48.590;8.866;2022-12-18T11:54:46;15.50;27.90
18291;DHT22;9271;48.590;8.866;2022-12-18T11:57:18;16.00;28.50
18291;DHT22;9271;48.590;8.866;2022-12-18T11:59:56;16.30;28.30
18291;DHT22;9271;48.590;8.866;2022-12-18T12:02:41;16.40;28.20
18291;DHT22;9271;48.590;8.866;2022-12-18T12:05:20;15.20;28.40
18291;DHT22;9271;48.590;8.866;2022-12-18T12:07:56;14.30;29.20
18291;DHT22;9271;48.590;8.866;2022-12-18T12:10:36;13.00;31.10
18291;DHT22;9271;48.590;8.866;2022-12-18T12:13:15;11.80;32.10
18291;DHT22;9271;48.590;8.866;2022-12-18T12:15:52;10.60;34.90
18291;DHT22;9271;48.590;8.866;2022-12-18T12:18:31;9.30;38.80
18291;DHT22;9271;48.590;8.866;2022-12-18T12:21:04;8.90;38.90
18291;DHT22;9271;48.590;8.866;2022-12-18T12:23:39;8.40;39.30
18291;DHT22;9271;48.590;8.866;2022-12-18T12:26:09;8.40;39.80
18291;DHT22;9271;48.590;8.866;2022-12-18T12:28:51;7.90;39.70
18291;DHT22;9271;48.590;8.866;2022-12-18T12:31:27;7.50;41.20
18291;DHT22;9271;48.590;8.866;2022-12-18T12:34:04;7.50;41.30
18291;DHT22;9271;48.590;8.866;2022-12-18T12:36:41;7.40;42.90
18291;DHT22;9271;48.590;8.866;2022-12-18T12:39:17;8.20;42.20
18291;DHT22;9271;48.590;8.866;2022-12-18T12:41:45;8.30;41.60
18291;DHT22;9271;48.590;8.866;2022-12-18T12:44:34;8.30;42.20
18291;DHT22;9271;48.590;8.866;2022-12-18T12:47:12;7.60;43.10
18291;DHT22;9271;48.590;8.866;2022-12-18T12:49:40;7.70;42.70
18291;DHT22;9271;48.590;8.866;2022-12-18T12:52:16;7.60;42.90
18291;DHT22;9271;48.590;8.866;2022-12-18T12:54:44;7.50;44.50
18291;DHT22;9271;48.590;8.866;2022-12-18T12:57:15;7.50;44.40
18291;DHT22;9271;48.590;8.866;2022-12-18T12:59:49;7.70;43.60
18291;DHT22;9271;48.590;8.866;2022-12-18T13:02:23;7.70;43.10
18291;DHT22;9271;48.590;8.866;2022-12-18T13:04:56;7.50;44.50
18291;DHT22;9271;48.590;8.866;2022-12-18T13:07:27;7.60;44.60
18291;DHT22;9271;48.590;8.866;2022-12-18T13:10:14;7.50;45.40
18291;DHT22;9271;48.590;8.866;2022-12-18T13:12:53;7.00;45.70
18291;DHT22;9271;48.590;8.866;2022-12-18T13:15:24;7.00;45.80
18291;DHT22;9271;48.590;8.866;2022-12-18T13:18:05;6.80;47.00
18291;DHT22;9271;48.590;8.866;2022-12-18T13:20:37;6.30;47.60
18291;DHT22;9271;48.590;8.866;2022-12-18T13:23:27;6.10;48.50
18291;DHT22;9271;48.590;8.866;2022-12-18T13:25:54;5.90;48.90
18291;DHT22;9271;48.590;8.866;2022-12-18T13:28:23;5.50;49.40
18291;DHT22;9271;48.590;8.866;2022-12-18T13:30:55;4.70;51.40
18291;DHT22;9271;48.590;8.866;2022-12-18T13:33:41;4.80;52.00
18291;DHT22;9271;48.590;8.866;2022-12-18T13:36:24;4.60;52.10
18291;DHT22;9271;48.590;8.866;2022-12-18T13:42:36;4.70;53.20
18291;DHT22;9271;48.590;8.866;2022-12-18T13:45:42;4.80;53.00
18291;DHT22;9271;48.590;8.866;2022-12-18T13:48:19;5.00;52.70
18291;DHT22;9271;48.590;8.866;2022-12-18T13:51:00;5.10;50.80
18291;DHT22;9271;48.590;8.866;2022-12-18T13:53:33;4.90;51.20
18291;DHT22;9271;48.590;8.866;2022-12-18T13:56:00;5.10;50.90
18291;DHT22;9271;48.590;8.866;2022-12-18T13:58:28;5.10;51.70
18291;DHT22;9271;48.590;8.866;2022-12-18T14:00:54;4.90;52.70
18291;DHT22;9271;48.590;8.866;2022-12-18T14:03:25;4.70;53.90
18291;DHT22;9271;48.590;8.866;2022-12-18T14:05:55;4.60;53.90
18291;DHT22;9271;48.590;8.866;2022-12-18T14:08:25;4.20;54.80
18291;DHT22;9271;48.590;8.866;2022-12-18T14:10:53;3.70;56.30
18291;DHT22;9271;48.590;8.866;2022-12-18T14:13:24;3.50;57.00
18291;DHT22;9271;48.590;8.866;2022-12-18T14:15:54;3.30;57.60
18291;DHT22;9271;48.590;8.866;2022-12-18T14:18:23;3.20;58.20
18291;DHT22;9271;48.590;8.866;2022-12-18T14:20:52;3.20;58.60
18291;DHT22;9271;48.590;8.866;2022-12-18T14:23:32;2.90;59.00
18291;DHT22;9271;48.590;8.866;2022-12-18T14:26:00;2.80;59.90
18291;DHT22;9271;48.590;8.866;2022-12-18T14:28:27;2.70;60.10
18291;DHT22;9271;48.590;8.866;2022-12-18T14:30:54;2.60;61.10
18291;DHT22;9271;48.590;8.866;2022-12-18T14:33:24;2.40;62.10
18291;DHT22;9271;48.590;8.866;2022-12-18T14:35:56;2.10;63.70
18291;DHT22;9271;48.590;8.866;2022-12-18T14:38:30;2.10;64.60
18291;DHT22;9271;48.590;8.866;2022-12-18T14:40:58;1.80;65.50
18291;DHT22;9271;48.590;8.866;2022-12-18T14:43:27;1.60;66.30
18291;DHT22;9271;48.590;8.866;2022-12-18T14:45:54;1.20;68.30
18291;DHT22;9271;48.590;8.866;2022-12-18T14:48:24;1.10;69.10
18291;DHT22;9271;48.590;8.866;2022-12-18T14:51:00;0.60;71.30
18291;DHT22;9271;48.590;8.866;2022-12-18T14:53:35;0.70;72.20
18291;DHT22;9271;48.590;8.866;2022-12-18T14:56:10;0.80;72.80
18291;DHT22;9271;48.590;8.866;2022-12-18T14:58:44;0.50;73.70
18291;DHT22;9271;48.590;8.866;2022-12-18T15:01:18;0.00;76.60
18291;DHT22;9271;48.590;8.866;2022-12-18T15:03:45;-0.30;78.80
18291;DHT22;9271;48.590;8.866;2022-12-18T15:06:16;-0.30;80.10
18291;DHT22;9271;48.590;8.866;2022-12-18T15:08:45;-0.40;81.50
18291;DHT22;9271;48.590;8.866;2022-12-18T15:11:32;-0.50;82.30
18291;DHT22;9271;48.590;8.866;2022-12-18T15:14:03;-0.80;83.90
18291;DHT22;9271;48.590;8.866;2022-12-18T15:16:50;-0.70;85.80
18291;DHT22;9271;48.590;8.866;2022-12-18T15:19:17;-0.80;86.90
18291;DHT22;9271;48.590;8.866;2022-12-18T15:21:44;-0.90;87.40
18291;DHT22;9271;48.590;8.866;2022-12-18T15:24:18;-1.00;88.60
18291;DHT22;9271;48.590;8.866;2022-12-18T15:26:46;-0.90;89.30
18291;DHT22;9271;48.590;8.866;2022-12-18T15:29:20;-1.10;89.80
18291;DHT22;9271;48.590;8.866;2022-12-18T15:31:59;-1.40;90.60
18291;DHT22;9271;48.590;8.866;2022-12-18T15:34:26;-1.50;91.50
18291;DHT22;9271;48.590;8.866;2022-12-18T15:36:54;-1.50;92.10
18291;DHT22;9271;48.590;8.866;2022-12-18T15:39:22;-1.50;91.70
18291;DHT22;9271;48.590;8.866;2022-12-18T15:41:49;-1.50;91.60
18291;DHT22;9271;48.590;8.866;2022-12-18T15:44:33;-1.80;92.30
18291;DHT22;9271;48.590;8.866;2022-12-18T15:47:00;-1.70;92.40
18291;DHT22;9271;48.590;8.866;2022-12-18T15:49:27;-1.70;92.50
18291;DHT22;9271;48.590;8.866;2022-12-18T15:51:56;-2.10;93.10
18291;DHT22;9271;48.590;8.866;2022-12-18T15:54:25;-2.10;93.80
18291;DHT22;9271;48.590;8.866;2022-12-18T15:57:18;-2.00;94.10
18291;DHT22;9271;48.590;8.866;2022-12-18T15:59:52;-1.90;93.70
18291;DHT22;9271;48.590;8.866;2022-12-18T16:02:21;-2.10;93.60
18291;DHT22;9271;48.590;8.866;2022-12-18T16:04:49;-2.70;94.40
18291;DHT22;9271;48.590;8.866;2022-12-18T16:07:16;-3.00;96.10
18291;DHT22;9271;48.590;8.866;2022-12-18T16:09:44;-3.00;96.50
18291;DHT22;9271;48.590;8.866;2022-12-18T16:12:16;-3.20;96.80